PWSweather.com
Personal Weather Stations
Station Observations
WATERF01
WaterfordIE

WaterfordIE

Lat: 52.2412507, Lon: -7.1414691

Elevation: 65

Station Type: Davis Vantage Vue

Latest ConditionsUpdated 12:30:02 PM GMT Saturday, Oct 25, 2014
Currently Today's Max Today's Min Today's Average
Temperature 59.1°F15.1°C 59.1°F15.1°C 47.5°F8.6°C 52.1°F11.2°C
Dew Point 50.1°F10.1°C 51.8°F11.0°C 45.0°F7.2°C 48.3°F9.1°C
Winds 5.8 mph NW9.3 kmh NW 10.4 mph W16.7 kmh W - 5.6 mph 9.0 kmh
Wind Gusts 12.7 mph20.4 kmh 16.1 mph25.9 kmh - -
Humidity 72% 92% 72% 87%
Pressure 29.94 in1013.9 mb 29.95 in1014.2 mb 29.89 in1012.2 mb -
Hour Temp Dew Point Humidity Winds Wind Gusts Pressure Precip Precip Rate Daily Precip Total
12:30 PM 59.1°F15.1°C 50.1°F10.1°C 72% 5.8 mph NW9.3 kmh NW 12.7 mph20.4 kmh 29.94 in1013.9 mb 0.00 in0.0 mm 0.00 in/hr0.0 mm/hr 0.00 in0.0 mm
12:20 PM 58.8°F14.9°C 50.9°F10.5°C 75% 10.4 mph W16.7 kmh W 16.1 mph25.9 kmh 29.94 in1013.9 mb 0.00 in0.0 mm 0.00 in/hr0.0 mm/hr 0.00 in0.0 mm
12:10 PM 58.8°F14.9°C 50.9°F10.5°C 75% 8.1 mph WSW13.0 kmh WSW 13.8 mph22.2 kmh 29.94 in1013.9 mb 0.00 in0.0 mm 0.00 in/hr0.0 mm/hr 0.00 in0.0 mm
12:00 PM 59.0°F15.0°C 51.8°F11.0°C 77% 10.4 mph WSW16.7 kmh WSW 15.0 mph24.1 kmh 29.94 in1013.9 mb 0.00 in0.0 mm 0.00 in/hr0.0 mm/hr 0.00 in0.0 mm
11:50 AM 58.2°F14.6°C 50.0°F10.0°C 74% 6.9 mph WSW11.1 kmh WSW 11.5 mph18.5 kmh 29.94 in1013.9 mb 0.00 in0.0 mm 0.00 in/hr0.0 mm/hr 0.00 in0.0 mm
11:40 AM 57.7°F14.3°C 50.6°F10.3°C 77% 10.4 mph W16.7 kmh W 15.0 mph24.1 kmh 29.94 in1013.9 mb 0.00 in0.0 mm 0.00 in/hr0.0 mm/hr 0.00 in0.0 mm
11:30 AM 57.4°F14.1°C 50.2°F10.1°C 77% 9.2 mph ESE14.8 kmh ESE 16.1 mph25.9 kmh 29.94 in1013.9 mb 0.00 in0.0 mm 0.00 in/hr0.0 mm/hr 0.00 in0.0 mm
11:20 AM 57.0°F13.9°C 49.9°F9.9°C 77% 5.8 mph W9.3 kmh W 12.7 mph20.4 kmh 29.94 in1013.9 mb 0.00 in0.0 mm 0.00 in/hr0.0 mm/hr 0.00 in0.0 mm
11:10 AM 57.0°F13.9°C 50.2°F10.1°C 78% 6.9 mph WNW11.1 kmh WNW 12.7 mph20.4 kmh 29.94 in1013.9 mb 0.00 in0.0 mm 0.00 in/hr0.0 mm/hr 0.00 in0.0 mm
11:00 AM 56.6°F13.7°C 50.2°F10.1°C 79% 5.8 mph WSW9.3 kmh WSW 11.5 mph18.5 kmh 29.95 in1014.2 mb 0.00 in0.0 mm 0.00 in/hr0.0 mm/hr 0.00 in0.0 mm
10:50 AM 56.2°F13.4°C 49.7°F9.8°C 79% 8.1 mph WNW13.0 kmh WNW 12.7 mph20.4 kmh 29.95 in1014.2 mb 0.00 in0.0 mm 0.00 in/hr0.0 mm/hr 0.00 in0.0 mm
10:40 AM 55.8°F13.2°C 50.1°F10.1°C 81% 8.1 mph WNW13.0 kmh WNW 12.7 mph20.4 kmh 29.95 in1014.2 mb 0.00 in0.0 mm 0.00 in/hr0.0 mm/hr 0.00 in0.0 mm
10:30 AM 55.3°F12.9°C 50.2°F10.1°C 83% 5.8 mph NW9.3 kmh NW 8.1 mph13.0 kmh 29.94 in1013.9 mb 0.00 in0.0 mm 0.00 in/hr0.0 mm/hr 0.00 in0.0 mm
10:20 AM 55.0°F12.8°C 50.3°F10.2°C 84% 5.8 mph W9.3 kmh W 11.5 mph18.5 kmh 29.94 in1013.9 mb 0.00 in0.0 mm 0.00 in/hr0.0 mm/hr 0.00 in0.0 mm
10:10 AM 54.5°F12.5°C 49.8°F9.9°C 84% 5.8 mph W9.3 kmh W 8.1 mph13.0 kmh 29.94 in1013.9 mb 0.00 in0.0 mm 0.00 in/hr0.0 mm/hr 0.00 in0.0 mm
10:00 AM 54.4°F12.4°C 49.7°F9.8°C 84% 10.4 mph NNW16.7 kmh NNW 15.0 mph24.1 kmh 29.94 in1013.9 mb 0.00 in0.0 mm 0.00 in/hr0.0 mm/hr 0.00 in0.0 mm
09:50 AM 54.3°F12.4°C 49.9°F9.9°C 85% 6.9 mph WSW11.1 kmh WSW 11.5 mph18.5 kmh 29.94 in1013.9 mb 0.00 in0.0 mm 0.00 in/hr0.0 mm/hr 0.00 in0.0 mm
09:40 AM 53.9°F12.2°C 49.5°F9.7°C 85% 10.4 mph W16.7 kmh W 16.1 mph25.9 kmh 29.93 in1013.5 mb 0.00 in0.0 mm 0.00 in/hr0.0 mm/hr 0.00 in0.0 mm
09:30 AM 53.5°F11.9°C 49.7°F9.8°C 87% 5.8 mph S9.3 kmh S 9.2 mph14.8 kmh 29.94 in1013.9 mb 0.00 in0.0 mm 0.00 in/hr0.0 mm/hr 0.00 in0.0 mm
09:20 AM 53.4°F11.9°C 49.6°F9.8°C 87% 5.8 mph W9.3 kmh W 9.2 mph14.8 kmh 29.94 in1013.9 mb 0.00 in0.0 mm 0.00 in/hr0.0 mm/hr 0.00 in0.0 mm
09:10 AM 52.9°F11.6°C 49.4°F9.7°C 88% 5.8 mph W9.3 kmh W 10.4 mph16.7 kmh 29.93 in1013.5 mb 0.00 in0.0 mm 0.00 in/hr0.0 mm/hr 0.00 in0.0 mm
09:00 AM 52.5°F11.4°C 49.0°F9.4°C 88% 4.6 mph WSW7.4 kmh WSW 8.1 mph13.0 kmh 29.93 in1013.5 mb 0.00 in0.0 mm 0.00 in/hr0.0 mm/hr 0.00 in0.0 mm
08:50 AM 52.1°F11.2°C 48.9°F9.4°C 89% 4.6 mph SSW7.4 kmh SSW 8.1 mph13.0 kmh 29.93 in1013.5 mb 0.00 in0.0 mm 0.00 in/hr0.0 mm/hr 0.00 in0.0 mm
08:40 AM 51.7°F10.9°C 48.6°F9.2°C 89% 4.6 mph WNW7.4 kmh WNW 8.1 mph13.0 kmh 29.93 in1013.5 mb 0.00 in0.0 mm 0.00 in/hr0.0 mm/hr 0.00 in0.0 mm
08:30 AM 51.7°F10.9°C 48.6°F9.2°C 89% 6.9 mph N11.1 kmh N 11.5 mph18.5 kmh 29.93 in1013.5 mb 0.00 in0.0 mm 0.00 in/hr0.0 mm/hr 0.00 in0.0 mm
08:20 AM 51.6°F10.9°C 48.8°F9.3°C 90% 5.8 mph WNW9.3 kmh WNW 11.5 mph18.5 kmh 29.93 in1013.5 mb 0.00 in0.0 mm 0.00 in/hr0.0 mm/hr 0.00 in0.0 mm
08:10 AM 51.3°F10.7°C 48.5°F9.2°C 90% 5.8 mph W9.3 kmh W 8.1 mph13.0 kmh 29.93 in1013.5 mb 0.00 in0.0 mm 0.00 in/hr0.0 mm/hr 0.00 in0.0 mm
08:00 AM 51.2°F10.7°C 48.4°F9.1°C 90% 4.6 mph NW7.4 kmh NW 8.1 mph13.0 kmh 29.92 in1013.2 mb 0.00 in0.0 mm 0.00 in/hr0.0 mm/hr 0.00 in0.0 mm
07:50 AM 51.0°F10.6°C 48.2°F9.0°C 90% 4.6 mph W7.4 kmh W 8.1 mph13.0 kmh 29.92 in1013.2 mb 0.00 in0.0 mm 0.00 in/hr0.0 mm/hr 0.00 in0.0 mm
07:40 AM 50.9°F10.5°C 48.1°F8.9°C 90% 5.8 mph SW9.3 kmh SW 9.2 mph14.8 kmh 29.92 in1013.2 mb 0.00 in0.0 mm 0.00 in/hr0.0 mm/hr 0.00 in0.0 mm
07:30 AM 50.9°F10.5°C 48.1°F8.9°C 90% 5.8 mph WSW9.3 kmh WSW 8.1 mph13.0 kmh 29.92 in1013.2 mb 0.00 in0.0 mm 0.00 in/hr0.0 mm/hr 0.00 in0.0 mm
07:20 AM 51.0°F10.6°C 47.9°F8.8°C 89% 5.8 mph W9.3 kmh W 12.7 mph20.4 kmh 29.92 in1013.2 mb 0.00 in0.0 mm 0.00 in/hr0.0 mm/hr 0.00 in0.0 mm
07:10 AM 51.0°F10.6°C 47.9°F8.8°C 89% 9.2 mph W14.8 kmh W 15.0 mph24.1 kmh 29.91 in1012.9 mb 0.00 in0.0 mm 0.00 in/hr0.0 mm/hr 0.00 in0.0 mm
07:00 AM 51.0°F10.6°C 47.9°F8.8°C 89% 4.6 mph W7.4 kmh W 8.1 mph13.0 kmh 29.91 in1012.9 mb 0.00 in0.0 mm 0.00 in/hr0.0 mm/hr 0.00 in0.0 mm
06:50 AM 51.3°F10.7°C 48.2°F9.0°C 89% 3.5 mph WNW5.6 kmh WNW 5.8 mph9.3 kmh 29.91 in1012.9 mb 0.00 in0.0 mm 0.00 in/hr0.0 mm/hr 0.00 in0.0 mm
06:40 AM 51.2°F10.7°C 48.1°F8.9°C 89% 2.3 mph WNW3.7 kmh WNW 5.8 mph9.3 kmh 29.90 in1012.5 mb 0.00 in0.0 mm 0.00 in/hr0.0 mm/hr 0.00 in0.0 mm
06:30 AM 51.0°F10.6°C 47.9°F8.8°C 89% 3.5 mph WNW5.6 kmh WNW 5.8 mph9.3 kmh 29.89 in1012.2 mb 0.00 in0.0 mm 0.00 in/hr0.0 mm/hr 0.00 in0.0 mm
06:20 AM 51.0°F10.6°C 47.9°F8.8°C 89% 2.3 mph W3.7 kmh W 2.3 mph3.7 kmh 29.89 in1012.2 mb 0.00 in0.0 mm 0.00 in/hr0.0 mm/hr 0.00 in0.0 mm
06:10 AM 51.2°F10.7°C 48.0°F8.9°C 89% 3.5 mph WNW5.6 kmh WNW 5.8 mph9.3 kmh 29.89 in1012.2 mb 0.00 in0.0 mm 0.00 in/hr0.0 mm/hr 0.00 in0.0 mm
06:00 AM 51.3°F10.7°C 48.2°F9.0°C 89% 4.6 mph WNW7.4 kmh WNW 6.9 mph11.1 kmh 29.89 in1012.2 mb 0.00 in0.0 mm 0.00 in/hr0.0 mm/hr 0.00 in0.0 mm
05:50 AM 51.5°F10.8°C 48.3°F9.1°C 89% 4.6 mph W7.4 kmh W 8.1 mph13.0 kmh 29.89 in1012.2 mb 0.00 in0.0 mm 0.00 in/hr0.0 mm/hr 0.00 in0.0 mm
05:40 AM 51.8°F11.0°C 48.4°F9.1°C 88% 4.6 mph WSW7.4 kmh WSW 8.1 mph13.0 kmh 29.89 in1012.2 mb 0.00 in0.0 mm 0.00 in/hr0.0 mm/hr 0.00 in0.0 mm
05:30 AM 52.2°F11.2°C 48.1°F8.9°C 86% 9.2 mph WSW14.8 kmh WSW 16.1 mph25.9 kmh 29.89 in1012.2 mb 0.00 in0.0 mm 0.00 in/hr0.0 mm/hr 0.00 in0.0 mm
05:20 AM 52.3°F11.3°C 48.5°F9.2°C 87% 5.8 mph WSW9.3 kmh WSW 9.2 mph14.8 kmh 29.90 in1012.5 mb 0.00 in0.0 mm 0.00 in/hr0.0 mm/hr 0.00 in0.0 mm
05:10 AM 51.9°F11.1°C 48.4°F9.1°C 88% 2.3 mph WNW3.7 kmh WNW 5.8 mph9.3 kmh 29.90 in1012.5 mb 0.00 in0.0 mm 0.00 in/hr0.0 mm/hr 0.00 in0.0 mm
05:00 AM 51.6°F10.9°C 48.2°F9.0°C 88% 3.5 mph NW5.6 kmh NW 5.8 mph9.3 kmh 29.90 in1012.5 mb 0.00 in0.0 mm 0.00 in/hr0.0 mm/hr 0.00 in0.0 mm
04:50 AM 51.4°F10.8°C 48.0°F8.9°C 88% 4.6 mph WNW7.4 kmh WNW 8.1 mph13.0 kmh 29.90 in1012.5 mb 0.00 in0.0 mm 0.00 in/hr0.0 mm/hr 0.00 in0.0 mm
04:40 AM 51.4°F10.8°C 47.6°F8.7°C 87% 2.3 mph WNW3.7 kmh WNW 4.6 mph7.4 kmh 29.90 in1012.5 mb 0.00 in0.0 mm 0.00 in/hr0.0 mm/hr 0.00 in0.0 mm
04:30 AM 51.3°F10.7°C 47.9°F8.8°C 88% 4.6 mph SSW7.4 kmh SSW 6.9 mph11.1 kmh 29.91 in1012.9 mb 0.00 in0.0 mm 0.00 in/hr0.0 mm/hr 0.00 in0.0 mm
04:20 AM 51.1°F10.6°C 48.0°F8.9°C 89% 4.6 mph WNW7.4 kmh WNW 6.9 mph11.1 kmh 29.91 in1012.9 mb 0.00 in0.0 mm 0.00 in/hr0.0 mm/hr 0.00 in0.0 mm
04:10 AM 51.1°F10.6°C 48.3°F9.1°C 90% 2.3 mph WSW3.7 kmh WSW 5.8 mph9.3 kmh 29.90 in1012.5 mb 0.00 in0.0 mm 0.00 in/hr0.0 mm/hr 0.00 in0.0 mm
04:00 AM 51.3°F10.7°C 48.1°F8.9°C 89% 3.5 mph WNW5.6 kmh WNW 6.9 mph11.1 kmh 29.90 in1012.5 mb 0.00 in0.0 mm 0.00 in/hr0.0 mm/hr 0.00 in0.0 mm
03:50 AM 51.2°F10.7°C 47.8°F8.8°C 88% 4.6 mph WSW7.4 kmh WSW 8.1 mph13.0 kmh 29.91 in1012.9 mb 0.00 in0.0 mm 0.00 in/hr0.0 mm/hr 0.00 in0.0 mm
03:40 AM 51.0°F10.6°C 47.6°F8.7°C 88% 2.3 mph WNW3.7 kmh WNW 4.6 mph7.4 kmh 29.91 in1012.9 mb 0.00 in0.0 mm 0.00 in/hr0.0 mm/hr 0.00 in0.0 mm
03:30 AM 51.1°F10.6°C 47.7°F8.7°C 88% 2.3 mph WNW3.7 kmh WNW 5.8 mph9.3 kmh 29.91 in1012.9 mb 0.00 in0.0 mm 0.00 in/hr0.0 mm/hr 0.00 in0.0 mm
03:20 AM 50.8°F10.4°C 47.7°F8.7°C 89% 5.8 mph W9.3 kmh W 9.2 mph14.8 kmh 29.91 in1012.9 mb 0.00 in0.0 mm 0.00 in/hr0.0 mm/hr 0.00 in0.0 mm
03:10 AM 50.5°F10.3°C 47.4°F8.6°C 89% 4.6 mph NW7.4 kmh NW 8.1 mph13.0 kmh 29.91 in1012.9 mb 0.00 in0.0 mm 0.00 in/hr0.0 mm/hr 0.00 in0.0 mm
03:00 AM 50.1°F10.1°C 47.3°F8.5°C 90% 6.9 mph W11.1 kmh W 8.1 mph13.0 kmh 29.90 in1012.5 mb 0.00 in0.0 mm 0.00 in/hr0.0 mm/hr 0.00 in0.0 mm
02:50 AM 50.0°F10.0°C 46.9°F8.3°C 89% 6.9 mph W11.1 kmh W 9.2 mph14.8 kmh 29.91 in1012.9 mb 0.00 in0.0 mm 0.00 in/hr0.0 mm/hr 0.00 in0.0 mm
02:40 AM 50.4°F10.2°C 47.3°F8.5°C 89% 3.5 mph W5.6 kmh W 6.9 mph11.1 kmh 29.91 in1012.9 mb 0.00 in0.0 mm 0.00 in/hr0.0 mm/hr 0.00 in0.0 mm
02:30 AM 50.6°F10.3°C 47.5°F8.6°C 89% 2.3 mph WNW3.7 kmh WNW 4.6 mph7.4 kmh 29.91 in1012.9 mb 0.00 in0.0 mm 0.00 in/hr0.0 mm/hr 0.00 in0.0 mm
02:20 AM 50.5°F10.3°C 47.7°F8.7°C 90% 3.5 mph WSW5.6 kmh WSW 5.8 mph9.3 kmh 29.91 in1012.9 mb 0.00 in0.0 mm 0.00 in/hr0.0 mm/hr 0.00 in0.0 mm
02:10 AM 50.0°F10.0°C 47.5°F8.6°C 91% 5.8 mph WSW9.3 kmh WSW 9.2 mph14.8 kmh 29.92 in1013.2 mb 0.00 in0.0 mm 0.00 in/hr0.0 mm/hr 0.00 in0.0 mm
02:00 AM 49.7°F9.8°C 47.2°F8.4°C 91% 6.9 mph SW11.1 kmh SW 11.5 mph18.5 kmh 29.91 in1012.9 mb 0.00 in0.0 mm 0.00 in/hr0.0 mm/hr 0.00 in0.0 mm
01:50 AM 49.7°F9.8°C 47.2°F8.4°C 91% 5.8 mph W9.3 kmh W 9.2 mph14.8 kmh 29.92 in1013.2 mb 0.00 in0.0 mm 0.00 in/hr0.0 mm/hr 0.00 in0.0 mm
01:40 AM 49.3°F9.6°C 46.5°F8.1°C 90% 5.8 mph W9.3 kmh W 11.5 mph18.5 kmh 29.92 in1013.2 mb 0.00 in0.0 mm 0.00 in/hr0.0 mm/hr 0.00 in0.0 mm
01:30 AM 49.3°F9.6°C 46.5°F8.1°C 90% 4.6 mph SSE7.4 kmh SSE 8.1 mph13.0 kmh 29.91 in1012.9 mb 0.00 in0.0 mm 0.00 in/hr0.0 mm/hr 0.00 in0.0 mm
01:20 AM 49.4°F9.7°C 46.6°F8.1°C 90% 4.6 mph WSW7.4 kmh WSW 8.1 mph13.0 kmh 29.92 in1013.2 mb 0.00 in0.0 mm 0.00 in/hr0.0 mm/hr 0.00 in0.0 mm
01:10 AM 49.1°F9.5°C 46.6°F8.1°C 91% 4.6 mph W7.4 kmh W 11.5 mph18.5 kmh 29.92 in1013.2 mb 0.00 in0.0 mm 0.00 in/hr0.0 mm/hr 0.00 in0.0 mm
01:00 AM 48.2°F9.0°C 45.9°F7.7°C 92% 6.9 mph WSW11.1 kmh WSW 12.7 mph20.4 kmh 29.92 in1013.2 mb 0.00 in0.0 mm 0.00 in/hr0.0 mm/hr 0.00 in0.0 mm
12:50 AM 47.5°F8.6°C 45.0°F7.2°C 91% 5.8 mph W9.3 kmh W 8.1 mph13.0 kmh 29.92 in1013.2 mb 0.00 in0.0 mm 0.00 in/hr0.0 mm/hr 0.00 in0.0 mm
12:40 AM 47.7°F8.7°C 45.2°F7.3°C 91% 4.6 mph NW7.4 kmh NW 6.9 mph11.1 kmh 29.92 in1013.2 mb 0.00 in0.0 mm 0.00 in/hr0.0 mm/hr 0.00 in0.0 mm
12:30 AM 48.0°F8.9°C 45.2°F7.3°C 90% 4.6 mph SW7.4 kmh SW 6.9 mph11.1 kmh 29.92 in1013.2 mb 0.00 in0.0 mm 0.00 in/hr0.0 mm/hr 0.00 in0.0 mm
12:20 AM 48.5°F9.2°C 45.4°F7.4°C 89% 4.6 mph W7.4 kmh W 6.9 mph11.1 kmh 29.93 in1013.5 mb 0.00 in0.0 mm 0.00 in/hr0.0 mm/hr 0.00 in0.0 mm
12:10 AM 48.8°F9.3°C 46.0°F7.8°C 90% 5.8 mph WSW9.3 kmh WSW 11.5 mph18.5 kmh 29.93 in1013.5 mb 0.00 in0.0 mm 0.00 in/hr0.0 mm/hr 0.00 in0.0 mm
12:00 AM 48.5°F9.2°C 45.7°F7.6°C 90% 6.9 mph SW11.1 kmh SW 11.5 mph18.5 kmh 29.93 in1013.5 mb 0.00 in0.0 mm 0.00 in/hr0.0 mm/hr 0.00 in0.0 mm